createdAt,value
2019-01-09T00:00:36.296Z,993.30
2019-01-09T00:01:36.279Z,993.31
2019-01-09T00:02:36.281Z,993.30
2019-01-09T00:03:36.246Z,993.31
2019-01-09T00:04:36.254Z,993.31
2019-01-09T00:05:36.239Z,993.37
2019-01-09T00:06:36.222Z,993.40
2019-01-09T00:07:36.237Z,993.30
2019-01-09T00:08:36.213Z,993.31
2019-01-09T00:09:36.189Z,993.37
2019-01-09T00:10:36.185Z,993.29
2019-01-09T00:11:36.169Z,993.30
2019-01-09T00:12:36.188Z,993.31
2019-01-09T00:13:36.158Z,993.27
2019-01-09T00:14:36.152Z,993.29
2019-01-09T00:15:36.132Z,993.29
2019-01-09T00:16:36.118Z,993.30
2019-01-09T00:17:36.125Z,993.28
2019-01-09T00:18:36.095Z,993.28
2019-01-09T00:19:36.086Z,993.33
2019-01-09T00:20:36.080Z,993.32
2019-01-09T00:21:36.065Z,993.37
2019-01-09T00:22:36.074Z,993.33
2019-01-09T00:23:36.040Z,993.34
2019-01-09T00:24:36.037Z,993.26
2019-01-09T00:25:36.025Z,993.35
2019-01-09T00:26:36.012Z,993.38
2019-01-09T00:27:36.027Z,993.28
2019-01-09T00:28:35.995Z,993.35
2019-01-09T00:29:35.980Z,993.30
2019-01-09T00:30:36.065Z,993.40
2019-01-09T00:31:35.986Z,993.34
2019-01-09T00:32:35.983Z,993.39
2019-01-09T00:33:35.941Z,993.40
2019-01-09T00:34:35.938Z,993.42
2019-01-09T00:35:37.371Z,993.43
2019-01-09T00:36:35.922Z,993.44
2019-01-09T00:37:35.928Z,993.42
2019-01-09T00:38:35.911Z,993.42
2019-01-09T00:39:35.921Z,993.44
2019-01-09T00:40:35.871Z,993.43
2019-01-09T00:41:35.871Z,993.49
2019-01-09T00:42:35.883Z,993.47
2019-01-09T00:43:35.855Z,993.47
2019-01-09T00:44:35.835Z,993.43
2019-01-09T00:45:35.916Z,993.46
2019-01-09T00:46:35.824Z,993.51
2019-01-09T00:47:35.874Z,993.49
2019-01-09T00:48:35.814Z,993.52
2019-01-09T00:49:35.783Z,993.52
2019-01-09T00:50:35.793Z,993.44
2019-01-09T00:51:35.769Z,993.53
2019-01-09T00:52:35.777Z,993.51
2019-01-09T00:53:35.734Z,993.50
2019-01-09T00:54:35.733Z,993.49
2019-01-09T00:55:35.705Z,993.54
2019-01-09T00:56:35.699Z,993.55
2019-01-09T00:57:35.754Z,993.54
2019-01-09T00:58:35.678Z,993.59
2019-01-09T00:59:35.674Z,993.56
2019-01-09T01:00:35.663Z,993.62
2019-01-09T01:01:35.649Z,993.60
2019-01-09T01:02:35.650Z,993.62
2019-01-09T01:03:35.636Z,993.65
2019-01-09T01:04:35.638Z,993.70
2019-01-09T01:05:35.604Z,993.71
2019-01-09T01:06:35.617Z,993.72
2019-01-09T01:07:35.624Z,993.67
2019-01-09T01:08:35.614Z,993.68
2019-01-09T01:09:35.577Z,993.79
2019-01-09T01:10:35.559Z,993.72
2019-01-09T01:11:35.554Z,993.72
2019-01-09T01:12:35.543Z,993.65
2019-01-09T01:13:35.555Z,993.73
2019-01-09T01:14:35.522Z,993.68
2019-01-09T01:15:35.508Z,993.73
2019-01-09T01:16:35.503Z,993.67
2019-01-09T01:17:35.513Z,993.69
2019-01-09T01:18:35.495Z,993.76
2019-01-09T01:19:35.469Z,993.71
2019-01-09T01:20:35.455Z,993.79
2019-01-09T01:21:35.445Z,993.75
2019-01-09T01:22:35.438Z,993.75
2019-01-09T01:23:35.436Z,993.81
2019-01-09T01:24:35.403Z,993.82
2019-01-09T01:25:35.397Z,993.83
2019-01-09T01:26:35.391Z,993.85
2019-01-09T01:27:35.374Z,993.85
2019-01-09T01:28:35.393Z,993.91
2019-01-09T01:29:35.367Z,993.85
2019-01-09T01:30:35.342Z,993.92
2019-01-09T01:31:35.346Z,993.91
2019-01-09T01:32:35.327Z,993.90
2019-01-09T01:33:35.329Z,993.92
2019-01-09T01:34:35.304Z,993.94
2019-01-09T01:35:35.306Z,994.00
2019-01-09T01:36:35.281Z,994.00
2019-01-09T01:37:35.268Z,994.02
2019-01-09T01:38:35.296Z,994.07
2019-01-09T01:39:35.259Z,994.07
2019-01-09T01:40:35.281Z,994.05
2019-01-09T01:41:35.242Z,994.06
2019-01-09T01:42:35.759Z,994.02
2019-01-09T01:43:36.866Z,994.06
2019-01-09T01:44:35.212Z,994.01
2019-01-09T01:45:35.197Z,994.10
2019-01-09T01:46:35.190Z,994.14
2019-01-09T01:47:35.167Z,994.13
2019-01-09T01:48:35.178Z,994.12
2019-01-09T01:49:35.154Z,994.17
2019-01-09T01:50:35.151Z,994.11
2019-01-09T01:51:35.130Z,994.17
2019-01-09T01:52:35.135Z,994.15
2019-01-09T01:53:35.164Z,994.28
2019-01-09T01:54:35.098Z,994.18
2019-01-09T01:55:35.083Z,994.20
2019-01-09T01:56:35.091Z,994.29
2019-01-09T01:57:35.070Z,994.31
2019-01-09T01:58:35.075Z,994.24
2019-01-09T01:59:35.074Z,994.28
2019-01-09T02:00:35.035Z,994.27
2019-01-09T02:01:35.028Z,994.27
2019-01-09T02:02:35.011Z,994.30
2019-01-09T02:03:35.016Z,994.31
2019-01-09T02:04:34.990Z,994.35
2019-01-09T02:05:35.011Z,994.39
2019-01-09T02:06:34.981Z,994.40
2019-01-09T02:07:34.983Z,994.38
2019-01-09T02:08:34.989Z,994.36
2019-01-09T02:09:34.952Z,994.40
2019-01-09T02:10:34.932Z,994.41
2019-01-09T02:11:34.946Z,994.49
2019-01-09T02:12:34.916Z,994.47
2019-01-09T02:13:34.913Z,994.47
2019-01-09T02:14:34.886Z,994.48
2019-01-09T02:15:34.886Z,994.55
2019-01-09T02:16:34.874Z,994.52
2019-01-09T02:17:34.876Z,994.55
2019-01-09T02:18:34.865Z,994.56
2019-01-09T02:19:34.846Z,994.56
2019-01-09T02:20:34.828Z,994.54
2019-01-09T02:21:34.818Z,994.69
2019-01-09T02:22:34.811Z,994.59
2019-01-09T02:23:35.804Z,994.64
2019-01-09T02:24:34.806Z,994.65
2019-01-09T02:25:34.794Z,994.68
2019-01-09T02:26:34.773Z,994.64
2019-01-09T02:27:34.765Z,994.56
2019-01-09T02:28:34.750Z,994.67
2019-01-09T02:29:34.741Z,994.72
2019-01-09T02:30:34.725Z,994.74
2019-01-09T02:31:34.715Z,994.70
2019-01-09T02:32:34.705Z,994.69
2019-01-09T02:33:34.703Z,994.61
2019-01-09T02:34:34.697Z,994.70
2019-01-09T02:35:34.664Z,994.71
2019-01-09T02:36:34.657Z,994.72
2019-01-09T02:37:34.653Z,994.81
2019-01-09T02:38:34.681Z,994.79
2019-01-09T02:39:34.665Z,994.72
2019-01-09T02:40:34.629Z,994.88
2019-01-09T02:41:34.625Z,994.85
2019-01-09T02:42:34.620Z,994.84
2019-01-09T02:43:34.604Z,994.96
2019-01-09T02:44:34.582Z,994.88
2019-01-09T02:45:34.576Z,994.96
2019-01-09T02:46:34.571Z,994.83
2019-01-09T02:47:34.553Z,994.91
2019-01-09T02:48:34.553Z,994.85
2019-01-09T02:49:34.536Z,994.88
2019-01-09T02:50:34.524Z,994.93
2019-01-09T02:51:34.514Z,994.93
2019-01-09T02:52:34.489Z,994.89
2019-01-09T02:53:34.497Z,994.94
2019-01-09T02:54:34.469Z,994.93
2019-01-09T02:55:34.455Z,995.02
2019-01-09T02:56:34.458Z,994.87
2019-01-09T02:57:34.438Z,994.98
2019-01-09T02:58:34.456Z,994.96
2019-01-09T02:59:34.456Z,994.97
2019-01-09T03:00:34.420Z,994.94
2019-01-09T03:01:34.409Z,994.96
2019-01-09T03:02:34.397Z,994.91
2019-01-09T03:03:34.413Z,994.99
2019-01-09T03:04:34.371Z,995.00
2019-01-09T03:05:34.359Z,995.00
2019-01-09T03:06:34.368Z,995.04
2019-01-09T03:07:34.384Z,995.03
2019-01-09T03:08:34.340Z,995.08
2019-01-09T03:09:34.394Z,995.08
2019-01-09T03:10:34.301Z,995.06
2019-01-09T03:11:34.304Z,995.07
2019-01-09T03:12:34.298Z,995.02
2019-01-09T03:13:34.321Z,995.06
2019-01-09T03:14:34.278Z,995.01
2019-01-09T03:15:34.256Z,995.09
2019-01-09T03:16:41.851Z,995.08
2019-01-09T03:17:34.240Z,995.02
2019-01-09T03:18:34.234Z,995.00
2019-01-09T03:19:41.373Z,995.15
2019-01-09T03:20:34.199Z,995.10
2019-01-09T03:21:34.270Z,995.14
2019-01-09T03:22:34.197Z,995.16
2019-01-09T03:23:34.184Z,995.03
2019-01-09T03:24:34.197Z,995.19
2019-01-09T03:25:34.152Z,995.16
2019-01-09T03:26:34.137Z,995.12
2019-01-09T03:27:34.149Z,995.10
2019-01-09T03:28:34.119Z,995.18
2019-01-09T03:29:34.138Z,995.11
2019-01-09T03:30:34.111Z,995.18
2019-01-09T03:31:34.109Z,995.16
2019-01-09T03:32:34.077Z,995.19
2019-01-09T03:33:34.081Z,995.22
2019-01-09T03:34:34.200Z,995.26
2019-01-09T03:35:34.093Z,995.24
2019-01-09T03:36:34.055Z,995.27
2019-01-09T03:37:34.042Z,995.28
2019-01-09T03:38:34.023Z,995.09
2019-01-09T03:39:34.021Z,995.25
2019-01-09T03:40:34.010Z,995.35
2019-01-09T03:41:33.990Z,995.25
2019-01-09T03:42:33.986Z,995.33
2019-01-09T03:43:33.982Z,995.32
2019-01-09T03:44:33.978Z,995.33
2019-01-09T03:45:33.956Z,995.37
2019-01-09T03:46:33.943Z,995.36
2019-01-09T03:47:33.945Z,995.38
2019-01-09T03:48:33.923Z,995.31
2019-01-09T03:49:33.926Z,995.41
2019-01-09T03:50:33.898Z,995.34
2019-01-09T03:51:33.882Z,995.43
2019-01-09T03:52:33.881Z,995.38
2019-01-09T03:53:33.882Z,995.42
2019-01-09T03:54:33.890Z,995.39
2019-01-09T03:55:33.881Z,995.38
2019-01-09T03:56:33.845Z,995.36
2019-01-09T03:57:33.839Z,995.38
2019-01-09T03:58:33.818Z,995.42
2019-01-09T03:59:33.819Z,995.31
2019-01-09T04:00:33.792Z,995.38
2019-01-09T04:01:33.768Z,995.46
2019-01-09T04:02:33.771Z,995.42
2019-01-09T04:03:33.777Z,995.51
2019-01-09T04:04:33.759Z,995.50
2019-01-09T04:05:33.733Z,995.49
2019-01-09T04:06:41.642Z,995.46
2019-01-09T04:07:34.745Z,995.41
2019-01-09T04:08:33.721Z,995.56
2019-01-09T04:09:33.715Z,995.59
2019-01-09T04:10:33.677Z,995.52
2019-01-09T04:11:33.676Z,995.62
2019-01-09T04:12:33.686Z,995.58
2019-01-09T04:13:33.653Z,995.60
2019-01-09T04:14:33.650Z,995.57
2019-01-09T04:15:33.626Z,995.65
2019-01-09T04:16:33.648Z,995.61
2019-01-09T04:17:33.609Z,995.66
2019-01-09T04:18:33.606Z,995.67
2019-01-09T04:19:33.622Z,995.61
2019-01-09T04:20:33.570Z,995.62
2019-01-09T04:21:33.578Z,995.65
2019-01-09T04:22:33.573Z,995.70
2019-01-09T04:23:33.565Z,995.67
2019-01-09T04:24:33.561Z,995.70
2019-01-09T04:25:33.549Z,995.71
2019-01-09T04:26:33.517Z,995.58
2019-01-09T04:27:33.513Z,995.69
2019-01-09T04:28:33.507Z,995.74
2019-01-09T04:29:33.517Z,995.65
2019-01-09T04:30:33.485Z,995.67
2019-01-09T04:31:33.470Z,995.70
2019-01-09T04:32:33.449Z,995.68
2019-01-09T04:33:33.443Z,995.68
2019-01-09T04:34:33.445Z,995.73
2019-01-09T04:35:33.424Z,995.71
2019-01-09T04:36:33.420Z,995.76
2019-01-09T04:37:33.413Z,995.69
2019-01-09T04:38:33.388Z,995.73
2019-01-09T04:39:33.396Z,995.77
2019-01-09T04:40:33.378Z,995.75
2019-01-09T04:41:33.380Z,995.79
2019-01-09T04:42:33.357Z,995.81
2019-01-09T04:43:33.353Z,995.76
2019-01-09T04:44:33.356Z,995.81
2019-01-09T04:45:33.329Z,995.81
2019-01-09T04:46:33.311Z,995.81
2019-01-09T04:47:33.301Z,995.79
2019-01-09T04:48:33.312Z,995.79
2019-01-09T04:49:33.314Z,995.81
2019-01-09T04:50:33.265Z,995.79
2019-01-09T04:51:33.272Z,995.85
2019-01-09T04:52:33.260Z,995.78
2019-01-09T04:53:33.257Z,995.79
2019-01-09T04:54:33.257Z,995.83
2019-01-09T04:55:33.221Z,995.80
2019-01-09T04:56:33.202Z,995.84
2019-01-09T04:57:33.200Z,995.81
2019-01-09T04:58:33.184Z,995.78
2019-01-09T04:59:33.203Z,995.84
2019-01-09T05:00:33.182Z,995.90
2019-01-09T05:01:33.168Z,995.83
2019-01-09T05:02:33.136Z,995.83
2019-01-09T05:03:33.125Z,995.87
2019-01-09T05:04:33.144Z,995.83
2019-01-09T05:05:33.128Z,995.83
2019-01-09T05:06:33.119Z,995.84
2019-01-09T05:07:33.102Z,995.89
2019-01-09T05:08:34.053Z,995.91
2019-01-09T05:09:33.101Z,995.86
2019-01-09T05:10:33.068Z,995.91
2019-01-09T05:11:33.137Z,995.93
2019-01-09T05:12:41.092Z,995.96
2019-01-09T05:13:33.047Z,995.95
2019-01-09T05:14:33.023Z,995.97
2019-01-09T05:15:33.015Z,996.02
2019-01-09T05:16:33.003Z,996.00
2019-01-09T05:17:33.045Z,995.99
2019-01-09T05:18:32.984Z,995.98
2019-01-09T05:19:33.010Z,995.97
2019-01-09T05:20:32.955Z,996.01
2019-01-09T05:21:32.939Z,996.01
2019-01-09T05:22:32.931Z,996.02
2019-01-09T05:23:32.911Z,996.06
2019-01-09T05:24:32.927Z,996.01
2019-01-09T05:25:32.911Z,995.99
2019-01-09T05:26:32.885Z,996.08
2019-01-09T05:27:32.883Z,996.12
2019-01-09T05:28:32.861Z,996.02
2019-01-09T05:29:32.857Z,996.16
2019-01-09T05:30:32.866Z,996.07
2019-01-09T05:31:32.842Z,996.11
2019-01-09T05:32:32.836Z,996.15
2019-01-09T05:33:32.820Z,996.13
2019-01-09T05:34:32.806Z,996.15
2019-01-09T05:35:32.816Z,996.19
2019-01-09T05:36:32.799Z,996.18
2019-01-09T05:37:32.799Z,996.07
2019-01-09T05:38:32.769Z,996.15
2019-01-09T05:39:39.575Z,996.16
2019-01-09T05:40:33.758Z,996.25
2019-01-09T05:41:32.740Z,996.28
2019-01-09T05:42:32.738Z,996.21
2019-01-09T05:43:32.719Z,996.24
2019-01-09T05:44:32.711Z,996.29
2019-01-09T05:45:32.733Z,996.22
2019-01-09T05:46:32.687Z,996.23
2019-01-09T05:47:32.681Z,996.24
2019-01-09T05:48:32.662Z,996.22
2019-01-09T05:49:32.665Z,996.23
2019-01-09T05:50:32.656Z,996.32
2019-01-09T05:51:32.636Z,996.33
2019-01-09T05:52:32.613Z,996.27
2019-01-09T05:53:32.613Z,996.33
2019-01-09T05:54:32.617Z,996.27
2019-01-09T05:55:32.599Z,996.35
2019-01-09T05:56:32.586Z,996.31
2019-01-09T05:57:32.557Z,996.32
2019-01-09T05:58:32.549Z,996.38
2019-01-09T05:59:32.546Z,996.36
2019-01-09T06:00:32.563Z,996.43
2019-01-09T06:01:32.517Z,996.39
2019-01-09T06:02:32.517Z,996.34
2019-01-09T06:03:32.520Z,996.47
2019-01-09T06:04:32.491Z,996.41
2019-01-09T06:05:32.504Z,996.42
2019-01-09T06:06:39.566Z,996.54
2019-01-09T06:07:32.477Z,996.47
2019-01-09T06:08:32.978Z,996.53
2019-01-09T06:09:32.444Z,996.51
2019-01-09T06:10:32.459Z,996.46
2019-01-09T06:11:32.425Z,996.57
2019-01-09T06:12:32.433Z,996.50
2019-01-09T06:13:32.397Z,996.53
2019-01-09T06:14:32.397Z,996.62
2019-01-09T06:15:32.400Z,996.57
2019-01-09T06:16:32.369Z,996.65
2019-01-09T06:17:32.348Z,996.56
2019-01-09T06:18:32.345Z,996.62
2019-01-09T06:19:32.330Z,996.60
2019-01-09T06:20:32.348Z,996.66
2019-01-09T06:21:32.328Z,996.62
2019-01-09T06:22:32.312Z,996.63
2019-01-09T06:23:32.341Z,996.67
2019-01-09T06:24:32.274Z,996.73
2019-01-09T06:25:32.287Z,996.63
2019-01-09T06:26:32.272Z,996.69
2019-01-09T06:27:32.991Z,996.69
2019-01-09T06:28:32.237Z,996.65
2019-01-09T06:29:32.256Z,996.71
2019-01-09T06:30:32.227Z,996.74
2019-01-09T06:31:32.211Z,996.78
2019-01-09T06:32:32.203Z,996.76
2019-01-09T06:33:32.192Z,996.72
2019-01-09T06:34:32.190Z,996.81
2019-01-09T06:35:32.503Z,996.81
2019-01-09T06:36:32.972Z,996.72
2019-01-09T06:37:32.162Z,996.78
2019-01-09T06:38:32.139Z,996.74
2019-01-09T06:39:32.148Z,996.80
2019-01-09T06:40:32.159Z,996.79
2019-01-09T06:41:32.108Z,996.77
2019-01-09T06:42:32.093Z,996.79
2019-01-09T06:43:32.096Z,996.76
2019-01-09T06:44:32.086Z,996.82
2019-01-09T06:45:32.102Z,996.77
2019-01-09T06:46:32.087Z,996.74
2019-01-09T06:47:32.075Z,996.79
2019-01-09T06:48:32.068Z,996.92
2019-01-09T06:49:32.041Z,996.99
2019-01-09T06:50:32.054Z,996.92
2019-01-09T06:51:32.022Z,997.04
2019-01-09T06:52:32.010Z,997.02
2019-01-09T06:53:32.033Z,997.04
2019-01-09T06:54:32.353Z,996.95
2019-01-09T06:55:32.396Z,997.01
2019-01-09T06:56:31.962Z,996.96
2019-01-09T06:57:32.582Z,997.01
2019-01-09T06:58:32.740Z,997.04
2019-01-09T06:59:31.916Z,997.01
2019-01-09T07:00:32.005Z,996.99
2019-01-09T07:01:31.977Z,997.12
2019-01-09T07:02:31.901Z,997.04
2019-01-09T07:03:31.898Z,997.01
2019-01-09T07:04:31.892Z,997.02
2019-01-09T07:05:31.907Z,997.06
2019-01-09T07:06:31.863Z,997.11
2019-01-09T07:07:36.101Z,997.15
2019-01-09T07:08:31.856Z,997.20
2019-01-09T07:09:31.821Z,997.24
2019-01-09T07:10:31.847Z,997.30
2019-01-09T07:11:31.832Z,997.19
2019-01-09T07:12:31.802Z,997.27
2019-01-09T07:13:31.787Z,997.24
2019-01-09T07:14:31.795Z,997.34
2019-01-09T07:15:31.780Z,997.33
2019-01-09T07:16:31.773Z,997.33
2019-01-09T07:17:31.725Z,997.41
2019-01-09T07:18:31.748Z,997.40
2019-01-09T07:19:31.734Z,997.37
2019-01-09T07:20:31.732Z,997.42
2019-01-09T07:21:31.697Z,997.32
2019-01-09T07:22:31.679Z,997.40
2019-01-09T07:23:31.680Z,997.40
2019-01-09T07:24:31.664Z,997.44
2019-01-09T07:25:31.667Z,997.45
2019-01-09T07:26:31.671Z,997.43
2019-01-09T07:27:31.658Z,997.48
2019-01-09T07:28:31.614Z,997.56
2019-01-09T07:29:31.605Z,997.48
2019-01-09T07:30:31.601Z,997.55
2019-01-09T07:31:31.605Z,997.51
2019-01-09T07:32:31.609Z,997.53
2019-01-09T07:33:31.575Z,997.51
2019-01-09T07:34:31.558Z,997.55
2019-01-09T07:35:31.551Z,997.56
2019-01-09T07:36:31.560Z,997.56
2019-01-09T07:37:31.578Z,997.54
2019-01-09T07:38:31.540Z,997.54
2019-01-09T07:39:31.513Z,997.49
2019-01-09T07:40:31.509Z,997.62
2019-01-09T07:41:31.512Z,997.67
2019-01-09T07:42:31.475Z,997.65
2019-01-09T07:43:31.479Z,997.64
2019-01-09T07:44:31.480Z,997.64
2019-01-09T07:45:31.531Z,997.65
2019-01-09T07:46:31.444Z,997.67
2019-01-09T07:47:31.419Z,997.66
2019-01-09T07:48:31.428Z,997.69
2019-01-09T07:49:31.419Z,997.72
2019-01-09T07:50:31.402Z,997.72
2019-01-09T07:51:31.411Z,997.76
2019-01-09T07:52:31.369Z,997.74
2019-01-09T07:53:31.358Z,997.78
2019-01-09T07:54:31.398Z,997.79
2019-01-09T07:55:31.347Z,997.74
2019-01-09T07:56:39.401Z,997.80
2019-01-09T07:57:38.440Z,997.88
2019-01-09T07:58:38.408Z,997.90
2019-01-09T07:59:39.372Z,997.95
2019-01-09T08:00:39.389Z,997.94
2019-01-09T08:01:38.366Z,997.94
2019-01-09T08:02:39.327Z,997.88
2019-01-09T08:03:38.454Z,997.96
2019-01-09T08:04:39.321Z,998.02
2019-01-09T08:05:31.232Z,998.03
2019-01-09T08:06:39.332Z,998.08
2019-01-09T08:07:38.315Z,998.01
2019-01-09T08:08:39.243Z,998.08
2019-01-09T08:09:39.318Z,998.15
2019-01-09T08:10:31.171Z,998.12
2019-01-09T08:11:38.318Z,998.17
2019-01-09T08:12:31.154Z,998.19
2019-01-09T08:13:31.149Z,998.07
2019-01-09T08:14:31.148Z,998.12
2019-01-09T08:15:31.134Z,998.18
2019-01-09T08:16:31.137Z,998.23
2019-01-09T08:17:31.099Z,998.23
2019-01-09T08:18:31.097Z,998.24
2019-01-09T08:19:31.088Z,998.29
2019-01-09T08:20:31.087Z,998.35
2019-01-09T08:21:31.103Z,998.35
2019-01-09T08:22:31.051Z,998.36
2019-01-09T08:23:31.058Z,998.29
2019-01-09T08:24:31.046Z,998.40
2019-01-09T08:25:31.038Z,998.30
2019-01-09T08:26:31.035Z,998.44
2019-01-09T08:27:31.028Z,998.48
2019-01-09T08:28:31.002Z,998.35
2019-01-09T08:29:31.008Z,998.43
2019-01-09T08:30:30.996Z,998.32
2019-01-09T08:31:30.991Z,998.42
2019-01-09T08:32:30.973Z,998.55
2019-01-09T08:33:30.956Z,998.55
2019-01-09T08:34:30.980Z,998.55
2019-01-09T08:35:30.934Z,998.57
2019-01-09T08:36:30.934Z,998.56
2019-01-09T08:37:30.906Z,998.59
2019-01-09T08:38:30.902Z,998.55
2019-01-09T08:39:30.891Z,998.63
2019-01-09T08:40:30.870Z,998.69
2019-01-09T08:41:30.902Z,998.68
2019-01-09T08:42:30.868Z,998.58
2019-01-09T08:43:30.855Z,998.68
2019-01-09T08:44:30.888Z,998.62
2019-01-09T08:45:30.823Z,998.71
2019-01-09T08:46:30.843Z,998.75
2019-01-09T08:47:30.791Z,998.78
2019-01-09T08:48:30.786Z,998.78
2019-01-09T08:49:30.791Z,998.82
2019-01-09T08:50:30.765Z,998.84
2019-01-09T08:51:30.780Z,998.85
2019-01-09T08:52:32.600Z,998.85
2019-01-09T08:53:31.331Z,998.81
2019-01-09T08:54:30.717Z,998.84
2019-01-09T08:55:30.706Z,998.93
2019-01-09T08:56:30.722Z,998.90
2019-01-09T08:57:30.698Z,998.95
2019-01-09T08:58:30.700Z,999.04
2019-01-09T08:59:30.777Z,998.97
2019-01-09T09:00:30.681Z,998.97
2019-01-09T09:01:30.685Z,998.99
2019-01-09T09:02:30.632Z,999.00
2019-01-09T09:03:30.643Z,998.99
2019-01-09T09:04:30.624Z,999.09
2019-01-09T09:05:30.622Z,999.03
2019-01-09T09:06:30.653Z,999.10
2019-01-09T09:07:30.691Z,999.07
2019-01-09T09:08:30.591Z,999.11
2019-01-09T09:09:30.567Z,999.14
2019-01-09T09:10:30.568Z,999.20
2019-01-09T09:11:30.559Z,999.23
2019-01-09T09:12:30.550Z,999.21
2019-01-09T09:13:30.539Z,999.26
2019-01-09T09:14:30.548Z,999.25
2019-01-09T09:15:30.526Z,999.28
2019-01-09T09:16:36.550Z,999.27
2019-01-09T09:17:31.503Z,999.29
2019-01-09T09:18:30.533Z,999.26
2019-01-09T09:19:30.495Z,999.44
2019-01-09T09:20:30.500Z,999.38
2019-01-09T09:21:30.505Z,999.32
2019-01-09T09:22:30.473Z,999.30
2019-01-09T09:23:30.476Z,999.32
2019-01-09T09:24:30.452Z,999.37
2019-01-09T09:25:30.394Z,999.40
2019-01-09T09:26:30.497Z,999.45
2019-01-09T09:27:39.515Z,999.42
2019-01-09T09:28:38.570Z,999.50
2019-01-09T09:29:38.396Z,999.51
2019-01-09T09:30:30.343Z,999.44
2019-01-09T09:31:30.520Z,999.44
2019-01-09T09:32:30.326Z,999.39
2019-01-09T09:33:30.325Z,999.47
2019-01-09T09:34:30.322Z,999.51
2019-01-09T09:35:30.308Z,999.49
2019-01-09T09:36:30.337Z,999.54
2019-01-09T09:37:30.344Z,999.56
2019-01-09T09:38:30.282Z,999.59
2019-01-09T09:39:30.265Z,999.53
2019-01-09T09:40:30.327Z,999.59
2019-01-09T09:41:30.285Z,999.61
2019-01-09T09:42:30.276Z,999.56
2019-01-09T09:43:30.214Z,999.65
2019-01-09T09:44:30.203Z,999.64
2019-01-09T09:45:30.212Z,999.66
2019-01-09T09:46:30.267Z,999.72
2019-01-09T09:47:30.241Z,999.74
2019-01-09T09:48:30.177Z,999.79
2019-01-09T09:49:30.155Z,999.84
2019-01-09T09:50:30.129Z,999.76
2019-01-09T09:51:30.121Z,999.80
2019-01-09T09:52:30.125Z,999.82
2019-01-09T09:53:30.107Z,999.74
2019-01-09T09:54:30.110Z,999.79
2019-01-09T09:55:30.090Z,999.86
2019-01-09T09:56:30.079Z,999.84
2019-01-09T09:57:30.080Z,999.82
2019-01-09T09:58:30.089Z,999.85
2019-01-09T09:59:30.051Z,999.91
2019-01-09T10:00:30.047Z,999.93
2019-01-09T10:01:30.016Z,999.89
2019-01-09T10:02:30.035Z,999.99
2019-01-09T10:03:30.013Z,999.88
2019-01-09T10:04:29.988Z,999.93
2019-01-09T10:05:31.018Z,999.94
2019-01-09T10:06:29.981Z,1000.00
2019-01-09T10:07:29.993Z,1000.03
2019-01-09T10:08:30.909Z,1000.10
2019-01-09T10:09:29.941Z,1000.07
2019-01-09T10:10:29.928Z,1000.08
2019-01-09T10:11:29.922Z,1000.10
2019-01-09T10:12:29.928Z,1000.10
2019-01-09T10:13:29.891Z,1000.21
2019-01-09T10:14:29.884Z,1000.17
2019-01-09T10:15:29.897Z,1000.16
2019-01-09T10:16:29.873Z,1000.17
2019-01-09T10:17:29.878Z,1000.13
2019-01-09T10:18:29.855Z,1000.22
2019-01-09T10:19:29.832Z,1000.26
2019-01-09T10:20:29.835Z,1000.16
2019-01-09T10:21:29.808Z,1000.22
2019-01-09T10:22:29.814Z,1000.23
2019-01-09T10:23:29.798Z,1000.26
2019-01-09T10:24:29.787Z,1000.24
2019-01-09T10:25:29.779Z,1000.25
2019-01-09T10:26:29.770Z,1000.28
2019-01-09T10:27:29.780Z,1000.37
2019-01-09T10:28:29.754Z,1000.30
2019-01-09T10:29:29.729Z,1000.30
2019-01-09T10:30:29.720Z,1000.28
2019-01-09T10:31:29.915Z,1000.29
2019-01-09T10:32:29.716Z,1000.33
2019-01-09T10:33:29.701Z,1000.33
2019-01-09T10:34:29.682Z,1000.37
2019-01-09T10:35:29.668Z,1000.45
2019-01-09T10:36:29.677Z,1000.40
2019-01-09T10:37:29.694Z,1000.47
2019-01-09T10:38:37.748Z,1000.49
2019-01-09T10:39:30.651Z,1000.45
2019-01-09T10:40:35.982Z,1000.49
2019-01-09T10:41:30.653Z,1000.49
2019-01-09T10:42:29.611Z,1000.46
2019-01-09T10:43:29.595Z,1000.55
2019-01-09T10:44:29.589Z,1000.57
2019-01-09T10:45:29.569Z,1000.50
2019-01-09T10:46:29.551Z,1000.57
2019-01-09T10:47:29.567Z,1000.56
2019-01-09T10:48:29.540Z,1000.51
2019-01-09T10:49:29.526Z,1000.60
2019-01-09T10:50:29.521Z,1000.53
2019-01-09T10:51:29.525Z,1000.61
2019-01-09T10:52:29.509Z,1000.65
2019-01-09T10:53:29.476Z,1000.54
2019-01-09T10:54:29.477Z,1000.62
2019-01-09T10:55:29.490Z,1000.65
2019-01-09T10:56:29.480Z,1000.62
2019-01-09T10:57:29.467Z,1000.57
2019-01-09T10:58:29.427Z,1000.75
2019-01-09T10:59:29.438Z,1000.70
2019-01-09T11:00:29.413Z,1000.68
2019-01-09T11:01:29.418Z,1000.70
2019-01-09T11:02:29.416Z,1000.73
2019-01-09T11:03:29.400Z,1000.69
2019-01-09T11:04:29.386Z,1000.65
2019-01-09T11:05:29.410Z,1000.70
2019-01-09T11:06:29.377Z,1000.79
2019-01-09T11:07:29.387Z,1000.74
2019-01-09T11:08:29.364Z,1000.71
2019-01-09T11:09:29.368Z,1000.75
2019-01-09T11:10:29.326Z,1000.66
2019-01-09T11:11:29.318Z,1000.78
2019-01-09T11:12:29.316Z,1000.66
2019-01-09T11:13:29.272Z,1000.66
2019-01-09T11:14:29.282Z,1000.73
2019-01-09T11:15:29.259Z,1000.66
2019-01-09T11:16:29.239Z,1000.69
2019-01-09T11:17:29.256Z,1000.67
2019-01-09T11:18:29.240Z,1000.71
2019-01-09T11:19:29.219Z,1000.73
2019-01-09T11:20:29.215Z,1000.72
2019-01-09T11:21:29.271Z,1000.78
2019-01-09T11:22:29.197Z,1000.77
2019-01-09T11:23:29.164Z,1000.87
2019-01-09T11:24:29.164Z,1000.87
2019-01-09T11:25:29.166Z,1000.82
2019-01-09T11:26:29.129Z,1000.84
2019-01-09T11:27:29.174Z,1000.85
2019-01-09T11:28:29.113Z,1000.89
2019-01-09T11:29:29.101Z,1000.87
2019-01-09T11:30:29.097Z,1000.87
2019-01-09T11:31:29.105Z,1000.85
2019-01-09T11:32:29.099Z,1000.94
2019-01-09T11:33:29.097Z,1000.91
2019-01-09T11:34:29.052Z,1000.93
2019-01-09T11:35:29.034Z,1000.95
2019-01-09T11:36:29.939Z,1000.96
2019-01-09T11:37:29.066Z,1001.01
2019-01-09T11:38:29.031Z,1001.01
2019-01-09T11:39:29.007Z,1000.89
2019-01-09T11:40:28.989Z,1000.98
2019-01-09T11:41:28.970Z,1000.97
2019-01-09T11:42:29.926Z,1001.02
2019-01-09T11:43:28.986Z,1000.95
2019-01-09T11:44:36.133Z,1000.99
2019-01-09T11:45:36.055Z,1001.00
2019-01-09T11:46:36.046Z,1001.01
2019-01-09T11:47:35.999Z,1000.96
2019-01-09T11:48:36.132Z,1000.95
2019-01-09T11:49:35.979Z,1001.09
2019-01-09T11:50:36.638Z,1001.10
2019-01-09T11:51:36.969Z,1001.10
2019-01-09T11:52:36.011Z,1001.03
2019-01-09T11:53:35.924Z,1001.04
2019-01-09T11:54:28.863Z,1001.12
2019-01-09T11:55:35.926Z,1001.10
2019-01-09T11:56:35.896Z,1001.07
2019-01-09T11:57:35.915Z,1001.20
2019-01-09T11:58:36.975Z,1001.11
2019-01-09T11:59:36.674Z,1001.12
2019-01-09T12:00:28.790Z,1001.21
2019-01-09T12:01:28.843Z,1001.21
2019-01-09T12:02:28.797Z,1001.24
2019-01-09T12:03:28.824Z,1001.18
2019-01-09T12:04:28.727Z,1001.25
2019-01-09T12:05:28.769Z,1001.24
2019-01-09T12:06:28.750Z,1001.22
2019-01-09T12:07:28.728Z,1001.21
2019-01-09T12:08:28.757Z,1001.26
2019-01-09T12:09:28.724Z,1001.24
2019-01-09T12:10:30.180Z,1001.34
2019-01-09T12:11:28.684Z,1001.20
2019-01-09T12:12:28.665Z,1001.37
2019-01-09T12:13:28.678Z,1001.31
2019-01-09T12:14:28.660Z,1001.31
2019-01-09T12:15:28.627Z,1001.31
2019-01-09T12:16:28.605Z,1001.32
2019-01-09T12:17:28.604Z,1001.42
2019-01-09T12:18:28.613Z,1001.34
2019-01-09T12:19:28.590Z,1001.38
2019-01-09T12:20:36.677Z,1001.45
2019-01-09T12:21:36.672Z,1001.37
2019-01-09T12:22:37.535Z,1001.46
2019-01-09T12:24:39.265Z,1001.44
2019-01-09T12:25:46.290Z,1001.51